KLIMATOLOGI DAS P. BENDUNGREJO

Tanggal Temperature (oC) RH (%) PAN 'A' Kecepatan Angin (KM/hari) Sinar Matahari (%) Hujan Biasa (mm)
Max Min Rata-rata Temp Air Dlm Tangki (oC) Penguapan (mm)
2021-11-30 33.4 22 27.7 96 29 4.1 32.7 9.14 1.1
2021-11-29 35.8 22.5 29.15 96 29.5 4 45.3 13.3 16
2021-11-28 35.6 22.5 29.05 96 30 4 41.9 11.64 11
2021-11-27 35.2 22 28.6 96 30.5 5.5 41.1 19.12 80.5
2021-11-26 33.4 23.5 28.45 92.6 30 2 55.1 32.42 0
2021-11-25 33.6 23.5 28.55 92.6 30.5 3 48.8 0 0
2021-11-24 34.4 23.5 28.95 94 30 3 37.6 20.78 1
2021-11-23 35.8 23.5 29.65 91 31.5 4.3 55.7 49.04 0.3
2021-11-22 35.2 23 29.1 96 31 0 53 48.21 0
2021-11-21 34 23 28.5 94 29 3.2 46 29.93 1.2
2021-11-20 37 23 30 94 32 4.5 45.8 65.67 8
2021-11-19 34.8 22.5 28.65 94 30 2.2 38.4 25.77 9.7
2021-11-18 35.2 23.5 29.35 94 30.5 4 56.8 47.38 1
2021-11-17 34.8 23 28.9 94 30.5 4 57.5 59.85 0
2021-11-16 34 23 28.5 94 29.5 3.3 56.4 44.89 5.3
2021-11-15 34.4 23 28.7 96 29.5 4.2 53.6 50.25 2.2
2021-11-14 34.4 23.5 28.95 94 29 2.5 28.6 8.38 0
2021-11-13 35.6 24 29.8 92 30.5 2.4 52.7 38.53 3.9
2021-11-12 35.4 24 29.7 94 29.5 3.3 73.3 26.8 0.3
2021-11-11 35.2 24 29.6 92 30.5 2 45.5 28.48 0
2021-11-10 35.8 23.5 29.65 92 31.5 4.8 57.4 48.58 2.8
2021-11-09 33.6 23.5 28.55 96 27 1.2 54.8 0 4.2
2021-11-08 35.8 23 29.4 94 31.5 6.7 62.8 42.71 32.7
2021-11-07 34.4 24 29.2 92 31.5 1.5 88.4 66.16 0
2021-11-06 34.8 23.5 29.15 92 31.5 3.5 63.8 65.33 0.5
2021-11-05 35 22.5 28.75 96 31 6.7 57 36.85 35.7
2021-11-04 35 22 28.5 96 29 5.1 59.9 51.09 75.1
2021-11-03 33.8 23 28.4 90 29.5 4.8 65.3 42.71 17.3
2021-11-02 35.6 23 29.3 94 30 3.5 61.2 57.79 0
2021-11-01 35.2 22.5 28.85 96 31 3.3 55 53.6 5.8